PATL/TLJ METAR and TAF weather

Enter ICAO airport designator
Station Type Date Time Source
PATL METAR 2020/12/06 01:55 UTC NOAA

PATL 060155Z AUTO 03006KT 10SM CLR M18/M19 A2968 RMK AO2 SHSNB0120E0135 SLP087 T11781192


Station Type Date Time Source
PATL Decoded METAR 2020/12/06 01:55 UTC NOAA

Takotna, Tatalina LRRS Airport, AK, United States (PATL) 62-54N 155-59W
Dec 05, 2020 - 08:55 PM EST / 2020.12.06 0155 UTC
Wind: from the NNE (030 degrees) at 7 MPH (6 KT):0
Visibility: 10 mile(s):0
Sky conditions: clear
Temperature: -0.0 F (-17.8 C)
Windchill: -13 F (-25 C):2
Dew Point: -2.6 F (-19.2 C)
Relative Humidity: 88%
Pressure (altimeter): 29.68 in. Hg (1005 hPa)
ob: PATL 060155Z AUTO 03006KT 10SM CLR M18/M19 A2968 RMK AO2 SHSNB0120E0135 SLP087 T11781192
cycle: 2

Station Type Date Time Source
PATL TAF 2012/01/12 14:06 UTC NOAA

TAF PATL 1214/1320 VRB06KT 9999 FEW050 SCT110 QNH2998INS TM26/1300Z TM32/1315Z

Example: see airport list